sensor_id;sensor_type;location;lat;lon;timestamp;temperature;humidity
66825;DHT22;53726;54.322;10.134;2023-11-21T00:00:50;20.20;71.10
66825;DHT22;53726;54.322;10.134;2023-11-21T00:03:15;20.20;71.30
66825;DHT22;53726;54.322;10.134;2023-11-21T00:05:41;20.20;71.30
66825;DHT22;53726;54.322;10.134;2023-11-21T00:08:08;20.20;71.30
66825;DHT22;53726;54.322;10.134;2023-11-21T00:10:41;20.20;71.20
66825;DHT22;53726;54.322;10.134;2023-11-21T00:13:06;20.20;71.20
66825;DHT22;53726;54.322;10.134;2023-11-21T00:15:33;20.20;71.30
66825;DHT22;53726;54.322;10.134;2023-11-21T00:17:59;20.20;71.30
66825;DHT22;53726;54.322;10.134;2023-11-21T00:20:26;20.20;71.30
66825;DHT22;53726;54.322;10.134;2023-11-21T00:22:53;20.20;71.10
66825;DHT22;53726;54.322;10.134;2023-11-21T00:25:19;20.20;71.10
66825;DHT22;53726;54.322;10.134;2023-11-21T00:27:46;20.20;70.90
66825;DHT22;53726;54.322;10.134;2023-11-21T00:30:13;20.20;70.80
66825;DHT22;53726;54.322;10.134;2023-11-21T00:32:40;20.20;70.90
66825;DHT22;53726;54.322;10.134;2023-11-21T00:35:06;20.20;70.90
66825;DHT22;53726;54.322;10.134;2023-11-21T00:37:37;20.20;70.70
66825;DHT22;53726;54.322;10.134;2023-11-21T00:40:05;20.20;70.80
66825;DHT22;53726;54.322;10.134;2023-11-21T00:42:31;20.20;70.80
66825;DHT22;53726;54.322;10.134;2023-11-21T00:45:00;20.20;70.60
66825;DHT22;53726;54.322;10.134;2023-11-21T00:47:27;20.20;70.50
66825;DHT22;53726;54.322;10.134;2023-11-21T00:50:00;20.20;70.50
66825;DHT22;53726;54.322;10.134;2023-11-21T00:52:26;20.20;70.40
66825;DHT22;53726;54.322;10.134;2023-11-21T00:54:54;20.20;70.40
66825;DHT22;53726;54.322;10.134;2023-11-21T00:57:20;20.20;70.50
66825;DHT22;53726;54.322;10.134;2023-11-21T00:59:48;20.30;70.50
66825;DHT22;53726;54.322;10.134;2023-11-21T01:02:13;20.20;70.30
66825;DHT22;53726;54.322;10.134;2023-11-21T01:04:40;20.20;70.40
66825;DHT22;53726;54.322;10.134;2023-11-21T01:07:05;20.20;70.50
66825;DHT22;53726;54.322;10.134;2023-11-21T01:09:31;20.20;70.50
66825;DHT22;53726;54.322;10.134;2023-11-21T01:11:57;20.20;70.50
66825;DHT22;53726;54.322;10.134;2023-11-21T01:14:25;20.20;70.50
66825;DHT22;53726;54.322;10.134;2023-11-21T01:16:53;20.20;70.50
66825;DHT22;53726;54.322;10.134;2023-11-21T01:19:27;20.20;70.60
66825;DHT22;53726;54.322;10.134;2023-11-21T01:21:55;20.30;70.50
66825;DHT22;53726;54.322;10.134;2023-11-21T01:24:22;20.20;70.50
66825;DHT22;53726;54.322;10.134;2023-11-21T01:26:48;20.20;70.40
66825;DHT22;53726;54.322;10.134;2023-11-21T01:29:14;20.20;70.30
66825;DHT22;53726;54.322;10.134;2023-11-21T01:31:41;20.20;70.40
66825;DHT22;53726;54.322;10.134;2023-11-21T01:34:09;20.20;70.40
66825;DHT22;53726;54.322;10.134;2023-11-21T01:36:36;20.20;70.40
66825;DHT22;53726;54.322;10.134;2023-11-21T01:39:02;20.20;70.30
66825;DHT22;53726;54.322;10.134;2023-11-21T01:41:34;20.20;70.30
66825;DHT22;53726;54.322;10.134;2023-11-21T01:44:00;20.20;70.20
66825;DHT22;53726;54.322;10.134;2023-11-21T01:46:27;20.20;70.10
66825;DHT22;53726;54.322;10.134;2023-11-21T01:48:54;20.20;70.50
66825;DHT22;53726;54.322;10.134;2023-11-21T01:51:21;20.20;70.40
66825;DHT22;53726;54.322;10.134;2023-11-21T01:53:46;20.20;71.20
66825;DHT22;53726;54.322;10.134;2023-11-21T01:56:12;20.20;70.20
66825;DHT22;53726;54.322;10.134;2023-11-21T01:58:39;20.20;70.20
66825;DHT22;53726;54.322;10.134;2023-11-21T02:01:12;20.20;70.30
66825;DHT22;53726;54.322;10.134;2023-11-21T02:03:40;20.20;70.20
66825;DHT22;53726;54.322;10.134;2023-11-21T02:06:07;20.20;70.20
66825;DHT22;53726;54.322;10.134;2023-11-21T02:08:40;20.30;70.30
66825;DHT22;53726;54.322;10.134;2023-11-21T02:11:10;20.20;70.20
66825;DHT22;53726;54.322;10.134;2023-11-21T02:13:38;20.20;70.10
66825;DHT22;53726;54.322;10.134;2023-11-21T02:16:09;20.20;70.10
66825;DHT22;53726;54.322;10.134;2023-11-21T02:18:43;20.20;70.00
66825;DHT22;53726;54.322;10.134;2023-11-21T02:21:09;20.20;70.10
66825;DHT22;53726;54.322;10.134;2023-11-21T02:23:36;20.20;70.00
66825;DHT22;53726;54.322;10.134;2023-11-21T02:26:05;20.30;69.90
66825;DHT22;53726;54.322;10.134;2023-11-21T02:28:31;20.30;70.00
66825;DHT22;53726;54.322;10.134;2023-11-21T02:30:56;20.20;69.90
66825;DHT22;53726;54.322;10.134;2023-11-21T02:33:25;20.20;69.90
66825;DHT22;53726;54.322;10.134;2023-11-21T02:35:51;20.20;70.00
66825;DHT22;53726;54.322;10.134;2023-11-21T02:38:20;20.20;69.70
66825;DHT22;53726;54.322;10.134;2023-11-21T02:40:47;20.20;69.80
66825;DHT22;53726;54.322;10.134;2023-11-21T02:43:14;20.20;69.80
66825;DHT22;53726;54.322;10.134;2023-11-21T02:45:41;20.20;69.80
66825;DHT22;53726;54.322;10.134;2023-11-21T02:48:07;20.20;69.70
66825;DHT22;53726;54.322;10.134;2023-11-21T02:50:32;20.20;69.60
66825;DHT22;53726;54.322;10.134;2023-11-21T02:52:59;20.20;69.60
66825;DHT22;53726;54.322;10.134;2023-11-21T02:55:27;20.20;69.70
66825;DHT22;53726;54.322;10.134;2023-11-21T02:57:53;20.30;69.70
66825;DHT22;53726;54.322;10.134;2023-11-21T03:00:21;20.20;69.70
66825;DHT22;53726;54.322;10.134;2023-11-21T03:02:49;20.20;69.70
66825;DHT22;53726;54.322;10.134;2023-11-21T03:05:15;20.20;69.70
66825;DHT22;53726;54.322;10.134;2023-11-21T03:07:41;20.20;69.70
66825;DHT22;53726;54.322;10.134;2023-11-21T03:10:15;20.30;69.70
66825;DHT22;53726;54.322;10.134;2023-11-21T03:12:41;20.20;69.50
66825;DHT22;53726;54.322;10.134;2023-11-21T03:15:10;20.20;69.70
66825;DHT22;53726;54.322;10.134;2023-11-21T03:17:43;20.20;69.50
66825;DHT22;53726;54.322;10.134;2023-11-21T03:20:10;20.30;69.50
66825;DHT22;53726;54.322;10.134;2023-11-21T03:22:40;20.20;69.60
66825;DHT22;53726;54.322;10.134;2023-11-21T03:25:07;20.20;69.90
66825;DHT22;53726;54.322;10.134;2023-11-21T03:27:37;20.30;69.90
66825;DHT22;53726;54.322;10.134;2023-11-21T03:30:04;20.20;69.90
66825;DHT22;53726;54.322;10.134;2023-11-21T03:32:33;20.20;69.80
66825;DHT22;53726;54.322;10.134;2023-11-21T03:35:06;20.20;69.80
66825;DHT22;53726;54.322;10.134;2023-11-21T03:37:33;20.20;70.10
66825;DHT22;53726;54.322;10.134;2023-11-21T03:39:58;20.20;70.00
66825;DHT22;53726;54.322;10.134;2023-11-21T03:42:26;20.20;69.90
66825;DHT22;53726;54.322;10.134;2023-11-21T03:44:53;20.30;70.00
66825;DHT22;53726;54.322;10.134;2023-11-21T03:47:19;20.20;70.00
66825;DHT22;53726;54.322;10.134;2023-11-21T03:49:45;20.20;69.90
66825;DHT22;53726;54.322;10.134;2023-11-21T03:52:11;20.20;70.00
66825;DHT22;53726;54.322;10.134;2023-11-21T03:54:37;20.20;69.70
66825;DHT22;53726;54.322;10.134;2023-11-21T03:57:03;20.20;69.80
66825;DHT22;53726;54.322;10.134;2023-11-21T03:59:28;20.20;69.90
66825;DHT22;53726;54.322;10.134;2023-11-21T04:01:57;20.20;69.70
66825;DHT22;53726;54.322;10.134;2023-11-21T04:04:23;20.20;69.70
66825;DHT22;53726;54.322;10.134;2023-11-21T04:06:48;20.20;69.70
66825;DHT22;53726;54.322;10.134;2023-11-21T04:09:14;20.20;69.80
66825;DHT22;53726;54.322;10.134;2023-11-21T04:11:39;20.20;69.70
66825;DHT22;53726;54.322;10.134;2023-11-21T04:14:05;20.20;69.70
66825;DHT22;53726;54.322;10.134;2023-11-21T04:16:30;20.20;69.70
66825;DHT22;53726;54.322;10.134;2023-11-21T04:18:56;20.30;69.60
66825;DHT22;53726;54.322;10.134;2023-11-21T04:21:22;20.20;69.60
66825;DHT22;53726;54.322;10.134;2023-11-21T04:23:49;20.20;69.80
66825;DHT22;53726;54.322;10.134;2023-11-21T04:26:14;20.20;69.70
66825;DHT22;53726;54.322;10.134;2023-11-21T04:28:40;20.20;69.50
66825;DHT22;53726;54.322;10.134;2023-11-21T04:31:05;20.20;69.70
66825;DHT22;53726;54.322;10.134;2023-11-21T04:33:32;20.30;69.50
66825;DHT22;53726;54.322;10.134;2023-11-21T04:35:58;20.20;69.50
66825;DHT22;53726;54.322;10.134;2023-11-21T04:38:23;20.20;69.50
66825;DHT22;53726;54.322;10.134;2023-11-21T04:40:49;20.20;69.20
66825;DHT22;53726;54.322;10.134;2023-11-21T04:43:15;20.20;69.20
66825;DHT22;53726;54.322;10.134;2023-11-21T04:45:41;20.30;69.40
66825;DHT22;53726;54.322;10.134;2023-11-21T04:48:07;20.20;69.50
66825;DHT22;53726;54.322;10.134;2023-11-21T04:50:34;20.20;69.30
66825;DHT22;53726;54.322;10.134;2023-11-21T04:53:00;20.20;69.40
66825;DHT22;53726;54.322;10.134;2023-11-21T04:55:26;20.20;69.50
66825;DHT22;53726;54.322;10.134;2023-11-21T04:57:54;20.20;69.20
66825;DHT22;53726;54.322;10.134;2023-11-21T05:00:19;20.20;69.40
66825;DHT22;53726;54.322;10.134;2023-11-21T05:02:46;20.20;69.50
66825;DHT22;53726;54.322;10.134;2023-11-21T05:05:12;20.20;69.30
66825;DHT22;53726;54.322;10.134;2023-11-21T05:07:39;20.20;69.50
66825;DHT22;53726;54.322;10.134;2023-11-21T05:10:06;20.30;69.40
66825;DHT22;53726;54.322;10.134;2023-11-21T05:12:36;20.20;69.30
66825;DHT22;53726;54.322;10.134;2023-11-21T05:15:04;20.30;69.40
66825;DHT22;53726;54.322;10.134;2023-11-21T05:17:39;20.30;69.50
66825;DHT22;53726;54.322;10.134;2023-11-21T05:20:09;20.30;69.40
66825;DHT22;53726;54.322;10.134;2023-11-21T05:22:37;20.20;69.40
66825;DHT22;53726;54.322;10.134;2023-11-21T05:25:05;20.20;69.10
66825;DHT22;53726;54.322;10.134;2023-11-21T05:27:32;20.20;69.40
66825;DHT22;53726;54.322;10.134;2023-11-21T05:30:03;20.30;69.00
66825;DHT22;53726;54.322;10.134;2023-11-21T05:32:31;20.20;68.90
66825;DHT22;53726;54.322;10.134;2023-11-21T05:35:04;20.30;69.00
66825;DHT22;53726;54.322;10.134;2023-11-21T05:37:36;20.30;69.60
66825;DHT22;53726;54.322;10.134;2023-11-21T05:40:06;20.30;69.30
66825;DHT22;53726;54.322;10.134;2023-11-21T05:42:56;20.30;69.70
66825;DHT22;53726;54.322;10.134;2023-11-21T05:45:28;20.30;69.40
66825;DHT22;53726;54.322;10.134;2023-11-21T05:47:57;20.40;69.40
66825;DHT22;53726;54.322;10.134;2023-11-21T05:50:26;20.40;69.50
66825;DHT22;53726;54.322;10.134;2023-11-21T05:52:52;20.40;69.50
66825;DHT22;53726;54.322;10.134;2023-11-21T05:55:18;20.40;69.80
66825;DHT22;53726;54.322;10.134;2023-11-21T05:57:47;20.40;69.90
66825;DHT22;53726;54.322;10.134;2023-11-21T06:00:13;20.40;69.90
66825;DHT22;53726;54.322;10.134;2023-11-21T06:02:43;20.40;69.80
66825;DHT22;53726;54.322;10.134;2023-11-21T06:05:11;20.40;69.80
66825;DHT22;53726;54.322;10.134;2023-11-21T06:07:38;20.40;69.70
66825;DHT22;53726;54.322;10.134;2023-11-21T06:10:04;20.40;62.00
66825;DHT22;53726;54.322;10.134;2023-11-21T06:12:37;20.10;56.00
66825;DHT22;53726;54.322;10.134;2023-11-21T06:15:04;19.90;53.30
66825;DHT22;53726;54.322;10.134;2023-11-21T06:17:34;19.80;55.80
66825;DHT22;53726;54.322;10.134;2023-11-21T06:23:07;19.70;61.40
66825;DHT22;53726;54.322;10.134;2023-11-21T06:26:08;19.70;62.40
66825;DHT22;53726;54.322;10.134;2023-11-21T06:28:51;19.70;63.70
66825;DHT22;53726;54.322;10.134;2023-11-21T06:34:39;19.80;65.70
66825;DHT22;53726;54.322;10.134;2023-11-21T06:37:09;19.90;66.20
66825;DHT22;53726;54.322;10.134;2023-11-21T06:39:45;19.90;66.30
66825;DHT22;53726;54.322;10.134;2023-11-21T06:42:20;19.90;66.50
66825;DHT22;53726;54.322;10.134;2023-11-21T06:44:52;19.90;66.60
66825;DHT22;53726;54.322;10.134;2023-11-21T06:47:19;20.00;66.80
66825;DHT22;53726;54.322;10.134;2023-11-21T06:49:55;19.90;66.70
66825;DHT22;53726;54.322;10.134;2023-11-21T06:52:21;20.00;66.90
66825;DHT22;53726;54.322;10.134;2023-11-21T06:54:48;20.00;67.20
66825;DHT22;53726;54.322;10.134;2023-11-21T06:57:16;20.00;67.50
66825;DHT22;53726;54.322;10.134;2023-11-21T06:59:43;20.10;67.60
66825;DHT22;53726;54.322;10.134;2023-11-21T07:02:11;20.10;67.70
66825;DHT22;53726;54.322;10.134;2023-11-21T07:04:45;20.10;67.50
66825;DHT22;53726;54.322;10.134;2023-11-21T07:07:29;20.10;64.40
66825;DHT22;53726;54.322;10.134;2023-11-21T07:09:55;20.00;57.10
66825;DHT22;53726;54.322;10.134;2023-11-21T07:12:27;20.00;58.60
66825;DHT22;53726;54.322;10.134;2023-11-21T07:14:53;20.00;62.70
66825;DHT22;53726;54.322;10.134;2023-11-21T07:17:22;20.00;64.20
66825;DHT22;53726;54.322;10.134;2023-11-21T07:19:48;20.00;64.70
66825;DHT22;53726;54.322;10.134;2023-11-21T07:22:15;20.00;65.00
66825;DHT22;53726;54.322;10.134;2023-11-21T07:24:49;20.00;65.20
66825;DHT22;53726;54.322;10.134;2023-11-21T07:30:23;20.00;65.50
66825;DHT22;53726;54.322;10.134;2023-11-21T07:35:59;20.10;65.80
66825;DHT22;53726;54.322;10.134;2023-11-21T07:47:45;20.10;65.80
66825;DHT22;53726;54.322;10.134;2023-11-21T07:50:14;20.10;65.80
66825;DHT22;53726;54.322;10.134;2023-11-21T07:52:55;20.10;65.80
66825;DHT22;53726;54.322;10.134;2023-11-21T07:55:23;20.10;65.80
66825;DHT22;53726;54.322;10.134;2023-11-21T07:58:07;20.10;65.90
66825;DHT22;53726;54.322;10.134;2023-11-21T08:38:03;20.20;65.90
66825;DHT22;53726;54.322;10.134;2023-11-21T08:43:50;20.20;65.90
66825;DHT22;53726;54.322;10.134;2023-11-21T09:47:32;20.20;65.90
66825;DHT22;53726;54.322;10.134;2023-11-21T09:50:07;20.10;65.80
66825;DHT22;53726;54.322;10.134;2023-11-21T09:52:43;20.10;65.80
66825;DHT22;53726;54.322;10.134;2023-11-21T09:55:13;20.10;65.80
66825;DHT22;53726;54.322;10.134;2023-11-21T09:57:45;20.20;65.90
66825;DHT22;53726;54.322;10.134;2023-11-21T10:00:16;20.10;65.80
66825;DHT22;53726;54.322;10.134;2023-11-21T10:02:43;20.10;65.80
66825;DHT22;53726;54.322;10.134;2023-11-21T10:05:10;20.10;65.80
66825;DHT22;53726;54.322;10.134;2023-11-21T10:07:40;20.10;65.80
66825;DHT22;53726;54.322;10.134;2023-11-21T10:10:08;20.10;65.80
66825;DHT22;53726;54.322;10.134;2023-11-21T10:12:36;20.10;65.90
66825;DHT22;53726;54.322;10.134;2023-11-21T10:15:07;20.10;65.80
66825;DHT22;53726;54.322;10.134;2023-11-21T10:17:35;20.10;65.80
66825;DHT22;53726;54.322;10.134;2023-11-21T10:20:08;20.10;65.80
66825;DHT22;53726;54.322;10.134;2023-11-21T10:22:38;20.10;65.80
66825;DHT22;53726;54.322;10.134;2023-11-21T10:25:06;20.10;65.80
66825;DHT22;53726;54.322;10.134;2023-11-21T10:27:34;20.10;65.80
66825;DHT22;53726;54.322;10.134;2023-11-21T10:30:01;20.10;65.80
66825;DHT22;53726;54.322;10.134;2023-11-21T10:32:28;20.10;65.80
66825;DHT22;53726;54.322;10.134;2023-11-21T10:34:56;20.10;65.80
66825;DHT22;53726;54.322;10.134;2023-11-21T10:37:23;20.10;65.90
66825;DHT22;53726;54.322;10.134;2023-11-21T10:39:48;20.10;65.80
66825;DHT22;53726;54.322;10.134;2023-11-21T10:42:15;20.20;65.90
66825;DHT22;53726;54.322;10.134;2023-11-21T10:44:43;20.10;65.80
66825;DHT22;53726;54.322;10.134;2023-11-21T10:47:11;20.20;65.90
66825;DHT22;53726;54.322;10.134;2023-11-21T10:49:37;20.10;65.90
66825;DHT22;53726;54.322;10.134;2023-11-21T10:52:03;20.20;65.90
66825;DHT22;53726;54.322;10.134;2023-11-21T10:54:29;20.20;65.90
66825;DHT22;53726;54.322;10.134;2023-11-21T10:56:58;20.20;65.80
66825;DHT22;53726;54.322;10.134;2023-11-21T10:59:25;20.20;65.90
66825;DHT22;53726;54.322;10.134;2023-11-21T11:01:53;20.20;65.90
66825;DHT22;53726;54.322;10.134;2023-11-21T11:04:19;20.20;65.90
66825;DHT22;53726;54.322;10.134;2023-11-21T11:06:45;20.20;65.80
66825;DHT22;53726;54.322;10.134;2023-11-21T11:09:15;20.20;65.90
66825;DHT22;53726;54.322;10.134;2023-11-21T11:11:42;20.20;65.90
66825;DHT22;53726;54.322;10.134;2023-11-21T11:14:13;20.20;65.80
66825;DHT22;53726;54.322;10.134;2023-11-21T11:16:39;20.20;65.90
66825;DHT22;53726;54.322;10.134;2023-11-21T11:19:08;20.20;65.80
66825;DHT22;53726;54.322;10.134;2023-11-21T11:26:58;20.20;65.90
66825;DHT22;53726;54.322;10.134;2023-11-21T11:29:35;20.20;65.80
66825;DHT22;53726;54.322;10.134;2023-11-21T11:34:47;20.20;65.90
66825;DHT22;53726;54.322;10.134;2023-11-21T11:37:15;20.20;65.80
66825;DHT22;53726;54.322;10.134;2023-11-21T11:39:41;20.10;65.80
66825;DHT22;53726;54.322;10.134;2023-11-21T11:42:14;20.20;65.80
66825;DHT22;53726;54.322;10.134;2023-11-21T11:47:20;20.20;65.90
66825;DHT22;53726;54.322;10.134;2023-11-21T11:50:05;20.10;65.80
66825;DHT22;53726;54.322;10.134;2023-11-21T11:55:17;20.20;65.80
66825;DHT22;53726;54.322;10.134;2023-11-21T11:57:44;20.20;65.80
66825;DHT22;53726;54.322;10.134;2023-11-21T12:02:44;20.20;65.90
66825;DHT22;53726;54.322;10.134;2023-11-21T12:05:10;20.20;65.90
66825;DHT22;53726;54.322;10.134;2023-11-21T12:07:48;20.20;65.80
66825;DHT22;53726;54.322;10.134;2023-11-21T12:10:18;20.20;65.90
66825;DHT22;53726;54.322;10.134;2023-11-21T12:12:48;20.20;65.80
66825;DHT22;53726;54.322;10.134;2023-11-21T12:15:14;20.20;65.80
66825;DHT22;53726;54.322;10.134;2023-11-21T12:17:41;20.20;65.80
66825;DHT22;53726;54.322;10.134;2023-11-21T12:20:08;20.20;65.80
66825;DHT22;53726;54.322;10.134;2023-11-21T12:23:00;20.20;65.80
66825;DHT22;53726;54.322;10.134;2023-11-21T12:25:28;20.20;65.80
66825;DHT22;53726;54.322;10.134;2023-11-21T12:27:55;20.20;65.80
66825;DHT22;53726;54.322;10.134;2023-11-21T12:30:22;20.10;65.80
66825;DHT22;53726;54.322;10.134;2023-11-21T12:32:51;20.10;65.70
66825;DHT22;53726;54.322;10.134;2023-11-21T12:35:17;20.10;65.80
66825;DHT22;53726;54.322;10.134;2023-11-21T12:37:44;20.20;65.90
66825;DHT22;53726;54.322;10.134;2023-11-21T12:40:12;20.10;65.70
66825;DHT22;53726;54.322;10.134;2023-11-21T12:42:44;20.10;65.80
66825;DHT22;53726;54.322;10.134;2023-11-21T12:47:45;20.20;65.80
66825;DHT22;53726;54.322;10.134;2023-11-21T12:50:11;20.10;65.80
66825;DHT22;53726;54.322;10.134;2023-11-21T12:52:40;20.10;65.80
66825;DHT22;53726;54.322;10.134;2023-11-21T12:55:06;20.10;65.80
66825;DHT22;53726;54.322;10.134;2023-11-21T12:57:34;20.10;65.80
66825;DHT22;53726;54.322;10.134;2023-11-21T13:00:03;20.20;65.80
66825;DHT22;53726;54.322;10.134;2023-11-21T13:02:36;20.20;65.80
66825;DHT22;53726;54.322;10.134;2023-11-21T13:05:03;20.20;66.80
66825;DHT22;53726;54.322;10.134;2023-11-21T13:07:40;20.20;65.80
66825;DHT22;53726;54.322;10.134;2023-11-21T13:10:16;20.20;65.80
66825;DHT22;53726;54.322;10.134;2023-11-21T13:12:45;20.20;65.80
66825;DHT22;53726;54.322;10.134;2023-11-21T13:15:16;20.20;65.80
66825;DHT22;53726;54.322;10.134;2023-11-21T13:17:45;20.20;65.70
66825;DHT22;53726;54.322;10.134;2023-11-21T13:20:11;20.20;65.70
66825;DHT22;53726;54.322;10.134;2023-11-21T13:25:14;20.20;65.70
66825;DHT22;53726;54.322;10.134;2023-11-21T13:27:43;20.20;65.70
66825;DHT22;53726;54.322;10.134;2023-11-21T13:30:10;20.20;65.80
66825;DHT22;53726;54.322;10.134;2023-11-21T13:32:35;20.20;65.60
66825;DHT22;53726;54.322;10.134;2023-11-21T13:35:01;20.10;65.50
66825;DHT22;53726;54.322;10.134;2023-11-21T13:37:26;20.20;66.60
66825;DHT22;53726;54.322;10.134;2023-11-21T13:39:53;20.10;65.60
66825;DHT22;53726;54.322;10.134;2023-11-21T13:42:20;20.10;65.50
66825;DHT22;53726;54.322;10.134;2023-11-21T13:44:48;20.10;65.50
66825;DHT22;53726;54.322;10.134;2023-11-21T13:47:15;20.20;65.50
66825;DHT22;53726;54.322;10.134;2023-11-21T13:49:41;20.20;65.70
66825;DHT22;53726;54.322;10.134;2023-11-21T13:52:07;20.10;65.60
66825;DHT22;53726;54.322;10.134;2023-11-21T13:54:32;20.10;65.70
66825;DHT22;53726;54.322;10.134;2023-11-21T13:56:58;20.10;65.60
66825;DHT22;53726;54.322;10.134;2023-11-21T13:59:25;20.20;65.60
66825;DHT22;53726;54.322;10.134;2023-11-21T14:01:51;20.20;65.40
66825;DHT22;53726;54.322;10.134;2023-11-21T14:04:38;20.20;65.50
66825;DHT22;53726;54.322;10.134;2023-11-21T14:07:18;20.10;65.50
66825;DHT22;53726;54.322;10.134;2023-11-21T14:09:51;20.20;65.50
66825;DHT22;53726;54.322;10.134;2023-11-21T14:12:18;20.20;66.70
66825;DHT22;53726;54.322;10.134;2023-11-21T14:14:43;20.20;65.70
66825;DHT22;53726;54.322;10.134;2023-11-21T14:17:10;20.20;65.70
66825;DHT22;53726;54.322;10.134;2023-11-21T14:19:36;20.20;65.70
66825;DHT22;53726;54.322;10.134;2023-11-21T14:22:05;20.20;65.80
66825;DHT22;53726;54.322;10.134;2023-11-21T14:24:37;20.20;65.70
66825;DHT22;53726;54.322;10.134;2023-11-21T14:27:02;20.20;65.70
66825;DHT22;53726;54.322;10.134;2023-11-21T14:29:28;20.20;65.70
66825;DHT22;53726;54.322;10.134;2023-11-21T14:31:55;20.20;65.70
66825;DHT22;53726;54.322;10.134;2023-11-21T14:34:23;20.20;65.80
66825;DHT22;53726;54.322;10.134;2023-11-21T14:36:52;20.20;65.70
66825;DHT22;53726;54.322;10.134;2023-11-21T14:39:17;20.20;65.50
66825;DHT22;53726;54.322;10.134;2023-11-21T14:41:51;20.20;65.50
66825;DHT22;53726;54.322;10.134;2023-11-21T14:44:18;20.20;65.50
66825;DHT22;53726;54.322;10.134;2023-11-21T14:46:43;20.20;65.50
66825;DHT22;53726;54.322;10.134;2023-11-21T14:49:11;20.10;65.50
66825;DHT22;53726;54.322;10.134;2023-11-21T14:51:48;20.20;65.60
66825;DHT22;53726;54.322;10.134;2023-11-21T14:54:34;20.20;65.60
66825;DHT22;53726;54.322;10.134;2023-11-21T14:57:08;20.20;65.60
66825;DHT22;53726;54.322;10.134;2023-11-21T14:59:46;20.20;65.70
66825;DHT22;53726;54.322;10.134;2023-11-21T15:02:18;20.10;65.60
66825;DHT22;53726;54.322;10.134;2023-11-21T15:04:48;20.10;65.60
66825;DHT22;53726;54.322;10.134;2023-11-21T15:07:17;20.10;65.60
66825;DHT22;53726;54.322;10.134;2023-11-21T15:09:42;20.20;65.70
66825;DHT22;53726;54.322;10.134;2023-11-21T15:15:00;20.10;65.60
66825;DHT22;53726;54.322;10.134;2023-11-21T15:17:25;20.20;65.70
66825;DHT22;53726;54.322;10.134;2023-11-21T15:19:58;20.10;65.60
66825;DHT22;53726;54.322;10.134;2023-11-21T15:22:26;20.10;65.60
66825;DHT22;53726;54.322;10.134;2023-11-21T15:24:52;20.10;65.60
66825;DHT22;53726;54.322;10.134;2023-11-21T15:27:20;20.10;65.70
66825;DHT22;53726;54.322;10.134;2023-11-21T15:29:46;20.10;65.70
66825;DHT22;53726;54.322;10.134;2023-11-21T15:32:12;20.10;65.60
66825;DHT22;53726;54.322;10.134;2023-11-21T15:34:53;20.10;65.60
66825;DHT22;53726;54.322;10.134;2023-11-21T15:37:19;20.10;65.80
66825;DHT22;53726;54.322;10.134;2023-11-21T15:39:46;20.10;65.70
66825;DHT22;53726;54.322;10.134;2023-11-21T15:42:12;20.10;65.50
66825;DHT22;53726;54.322;10.134;2023-11-21T15:44:39;20.10;65.60
66825;DHT22;53726;54.322;10.134;2023-11-21T15:47:06;20.10;65.50
66825;DHT22;53726;54.322;10.134;2023-11-21T15:49:34;20.10;65.40
66825;DHT22;53726;54.322;10.134;2023-11-21T15:52:02;20.10;65.40
66825;DHT22;53726;54.322;10.134;2023-11-21T15:54:29;20.10;65.50
66825;DHT22;53726;54.322;10.134;2023-11-21T15:56:56;20.10;66.50
66825;DHT22;53726;54.322;10.134;2023-11-21T15:59:26;20.10;65.40
66825;DHT22;53726;54.322;10.134;2023-11-21T16:01:59;20.20;65.40
66825;DHT22;53726;54.322;10.134;2023-11-21T16:04:33;20.10;65.40
66825;DHT22;53726;54.322;10.134;2023-11-21T16:07:03;20.10;65.40
66825;DHT22;53726;54.322;10.134;2023-11-21T16:09:32;20.10;65.30
66825;DHT22;53726;54.322;10.134;2023-11-21T16:12:03;20.10;65.40
66825;DHT22;53726;54.322;10.134;2023-11-21T16:14:33;20.10;65.40
66825;DHT22;53726;54.322;10.134;2023-11-21T16:17:11;20.10;65.40
66825;DHT22;53726;54.322;10.134;2023-11-21T16:19:41;20.10;65.40
66825;DHT22;53726;54.322;10.134;2023-11-21T16:22:14;20.10;65.40
66825;DHT22;53726;54.322;10.134;2023-11-21T16:24:48;20.10;65.50
66825;DHT22;53726;54.322;10.134;2023-11-21T16:27:14;20.10;65.50
66825;DHT22;53726;54.322;10.134;2023-11-21T16:29:39;20.10;65.70
66825;DHT22;53726;54.322;10.134;2023-11-21T16:32:07;20.10;65.80
66825;DHT22;53726;54.322;10.134;2023-11-21T16:34:34;20.10;65.80
66825;DHT22;53726;54.322;10.134;2023-11-21T16:37:01;20.10;65.80
66825;DHT22;53726;54.322;10.134;2023-11-21T16:39:30;20.10;66.10
66825;DHT22;53726;54.322;10.134;2023-11-21T16:41:57;20.10;66.40
66825;DHT22;53726;54.322;10.134;2023-11-21T16:44:30;20.10;66.40
66825;DHT22;53726;54.322;10.134;2023-11-21T16:46:56;20.10;66.50
66825;DHT22;53726;54.322;10.134;2023-11-21T16:49:24;20.10;66.50
66825;DHT22;53726;54.322;10.134;2023-11-21T16:51:52;20.10;66.60
66825;DHT22;53726;54.322;10.134;2023-11-21T16:54:19;20.10;66.50
66825;DHT22;53726;54.322;10.134;2023-11-21T16:56:46;20.10;66.60
66825;DHT22;53726;54.322;10.134;2023-11-21T16:59:16;20.10;66.60
66825;DHT22;53726;54.322;10.134;2023-11-21T17:01:43;20.10;66.60
66825;DHT22;53726;54.322;10.134;2023-11-21T17:04:18;20.10;66.80
66825;DHT22;53726;54.322;10.134;2023-11-21T17:06:48;20.10;67.10
66825;DHT22;53726;54.322;10.134;2023-11-21T17:09:15;20.10;67.50
66825;DHT22;53726;54.322;10.134;2023-11-21T17:11:49;20.10;63.70
66825;DHT22;53726;54.322;10.134;2023-11-21T17:14:17;20.10;60.60
66825;DHT22;53726;54.322;10.134;2023-11-21T17:16:44;20.00;66.30
66825;DHT22;53726;54.322;10.134;2023-11-21T17:19:11;20.00;68.10
66825;DHT22;53726;54.322;10.134;2023-11-21T17:21:38;20.00;68.60
66825;DHT22;53726;54.322;10.134;2023-11-21T17:24:05;20.10;68.60
66825;DHT22;53726;54.322;10.134;2023-11-21T17:26:31;20.10;68.50
66825;DHT22;53726;54.322;10.134;2023-11-21T17:28:57;20.10;68.30
66825;DHT22;53726;54.322;10.134;2023-11-21T17:31:24;20.10;68.00
66825;DHT22;53726;54.322;10.134;2023-11-21T17:33:50;20.10;68.00
66825;DHT22;53726;54.322;10.134;2023-11-21T17:36:15;20.10;67.90
66825;DHT22;53726;54.322;10.134;2023-11-21T17:38:41;20.10;67.80
66825;DHT22;53726;54.322;10.134;2023-11-21T17:41:08;20.10;67.80
66825;DHT22;53726;54.322;10.134;2023-11-21T17:43:39;20.10;67.70
66825;DHT22;53726;54.322;10.134;2023-11-21T17:46:07;20.10;67.60
66825;DHT22;53726;54.322;10.134;2023-11-21T17:48:34;20.10;67.50
66825;DHT22;53726;54.322;10.134;2023-11-21T17:51:02;20.10;67.40